sensor_id;sensor_type;location;lat;lon;timestamp;P1;durP1;ratioP1;P2;durP2;ratioP2
29344;SDS011;16339;48.748;2.222;2023-02-02T12:22:51;14.48;;;2.25;;
29344;SDS011;16339;48.748;2.222;2023-02-02T12:25:41;14.45;;;1.95;;
29344;SDS011;16339;48.748;2.222;2023-02-02T12:28:29;8.85;;;1.63;;
29344;SDS011;16339;48.748;2.222;2023-02-02T12:31:13;19.98;;;1.85;;
29344;SDS011;16339;48.748;2.222;2023-02-02T12:33:52;5.85;;;1.55;;
29344;SDS011;16339;48.748;2.222;2023-02-02T12:36:27;7.22;;;1.23;;
29344;SDS011;16339;48.748;2.222;2023-02-02T12:45:02;8.82;;;1.52;;
29344;SDS011;16339;48.748;2.222;2023-02-02T12:47:48;8.00;;;1.27;;
29344;SDS011;16339;48.748;2.222;2023-02-02T12:50:29;5.53;;;1.70;;
29344;SDS011;16339;48.748;2.222;2023-02-02T12:53:18;14.48;;;1.73;;
29344;SDS011;16339;48.748;2.222;2023-02-02T12:55:59;9.45;;;1.00;;
29344;SDS011;16339;48.748;2.222;2023-02-02T12:58:36;6.28;;;1.80;;
29344;SDS011;16339;48.748;2.222;2023-02-02T13:01:27;5.80;;;1.38;;
29344;SDS011;16339;48.748;2.222;2023-02-02T13:04:13;9.77;;;1.42;;
29344;SDS011;16339;48.748;2.222;2023-02-02T13:07:03;7.22;;;1.42;;
29344;SDS011;16339;48.748;2.222;2023-02-02T13:09:46;6.25;;;1.75;;
29344;SDS011;16339;48.748;2.222;2023-02-02T13:12:21;5.93;;;1.40;;
29344;SDS011;16339;48.748;2.222;2023-02-02T13:14:53;3.35;;;0.90;;
29344;SDS011;16339;48.748;2.222;2023-02-02T13:17:25;11.40;;;1.60;;
29344;SDS011;16339;48.748;2.222;2023-02-02T13:19:59;6.13;;;1.40;;
29344;SDS011;16339;48.748;2.222;2023-02-02T13:22:31;11.93;;;1.73;;
29344;SDS011;16339;48.748;2.222;2023-02-02T13:25:04;10.80;;;1.95;;
29344;SDS011;16339;48.748;2.222;2023-02-02T13:27:38;10.73;;;1.40;;
29344;SDS011;16339;48.748;2.222;2023-02-02T13:30:09;5.22;;;1.30;;
29344;SDS011;16339;48.748;2.222;2023-02-02T13:32:47;4.45;;;0.93;;
29344;SDS011;16339;48.748;2.222;2023-02-02T13:35:19;10.77;;;1.70;;
29344;SDS011;16339;48.748;2.222;2023-02-02T13:37:52;8.45;;;1.50;;
29344;SDS011;16339;48.748;2.222;2023-02-02T13:40:26;8.27;;;1.60;;
29344;SDS011;16339;48.748;2.222;2023-02-02T13:43:06;4.25;;;1.27;;
29344;SDS011;16339;48.748;2.222;2023-02-02T13:45:47;14.82;;;1.60;;
29344;SDS011;16339;48.748;2.222;2023-02-02T13:48:28;9.38;;;1.55;;
29344;SDS011;16339;48.748;2.222;2023-02-02T13:51:12;14.65;;;2.20;;
29344;SDS011;16339;48.748;2.222;2023-02-02T13:54:07;15.00;;;2.08;;
29344;SDS011;16339;48.748;2.222;2023-02-02T13:56:56;8.63;;;1.48;;
29344;SDS011;16339;48.748;2.222;2023-02-02T13:59:38;9.70;;;1.90;;
29344;SDS011;16339;48.748;2.222;2023-02-02T14:02:18;14.73;;;1.98;;
29344;SDS011;16339;48.748;2.222;2023-02-02T14:04:53;13.32;;;1.90;;
29344;SDS011;16339;48.748;2.222;2023-02-02T14:07:25;11.23;;;1.92;;
29344;SDS011;16339;48.748;2.222;2023-02-02T14:10:03;14.40;;;1.85;;
29344;SDS011;16339;48.748;2.222;2023-02-02T14:12:33;6.43;;;1.60;;
29344;SDS011;16339;48.748;2.222;2023-02-02T14:15:06;10.93;;;1.95;;
29344;SDS011;16339;48.748;2.222;2023-02-02T14:17:53;8.52;;;1.92;;
29344;SDS011;16339;48.748;2.222;2023-02-02T14:26:09;7.53;;;1.67;;
29344;SDS011;16339;48.748;2.222;2023-02-02T14:28:40;14.50;;;1.80;;
29344;SDS011;16339;48.748;2.222;2023-02-02T14:34:26;12.77;;;1.80;;
29344;SDS011;16339;48.748;2.222;2023-02-02T14:40:15;6.60;;;1.85;;
29344;SDS011;16339;48.748;2.222;2023-02-02T14:42:55;12.73;;;1.52;;
29344;SDS011;16339;48.748;2.222;2023-02-02T14:45:46;7.80;;;1.90;;
29344;SDS011;16339;48.748;2.222;2023-02-02T14:48:19;7.43;;;1.80;;
29344;SDS011;16339;48.748;2.222;2023-02-02T14:50:49;9.38;;;2.10;;
29344;SDS011;16339;48.748;2.222;2023-02-02T14:53:21;11.32;;;1.77;;
29344;SDS011;16339;48.748;2.222;2023-02-02T14:55:57;6.40;;;1.88;;
29344;SDS011;16339;48.748;2.222;2023-02-02T14:58:30;12.50;;;2.33;;
29344;SDS011;16339;48.748;2.222;2023-02-02T15:01:04;6.68;;;1.83;;
29344;SDS011;16339;48.748;2.222;2023-02-02T15:03:50;10.80;;;2.17;;
29344;SDS011;16339;48.748;2.222;2023-02-02T15:06:25;10.48;;;1.70;;
29344;SDS011;16339;48.748;2.222;2023-02-02T15:15:01;9.52;;;1.73;;
29344;SDS011;16339;48.748;2.222;2023-02-02T15:17:41;11.32;;;2.10;;
29344;SDS011;16339;48.748;2.222;2023-02-02T15:20:23;12.23;;;3.00;;
29344;SDS011;16339;48.748;2.222;2023-02-02T15:22:56;13.18;;;2.17;;
29344;SDS011;16339;48.748;2.222;2023-02-02T15:25:31;8.73;;;1.63;;
29344;SDS011;16339;48.748;2.222;2023-02-02T15:28:07;11.07;;;2.15;;
29344;SDS011;16339;48.748;2.222;2023-02-02T15:30:41;5.45;;;1.90;;
29344;SDS011;16339;48.748;2.222;2023-02-02T15:33:23;6.88;;;1.80;;
29344;SDS011;16339;48.748;2.222;2023-02-02T15:35:58;10.00;;;1.70;;
29344;SDS011;16339;48.748;2.222;2023-02-02T15:38:31;12.55;;;2.08;;
29344;SDS011;16339;48.748;2.222;2023-02-02T15:41:03;10.73;;;1.92;;
29344;SDS011;16339;48.748;2.222;2023-02-02T15:43:33;8.07;;;2.10;;
29344;SDS011;16339;48.748;2.222;2023-02-02T15:46:03;6.60;;;1.30;;
29344;SDS011;16339;48.748;2.222;2023-02-02T15:48:34;8.18;;;1.73;;
29344;SDS011;16339;48.748;2.222;2023-02-02T15:51:06;7.65;;;1.60;;
29344;SDS011;16339;48.748;2.222;2023-02-02T15:53:46;14.40;;;1.85;;
29344;SDS011;16339;48.748;2.222;2023-02-02T15:56:17;10.73;;;1.58;;
29344;SDS011;16339;48.748;2.222;2023-02-02T15:58:48;6.97;;;1.58;;
29344;SDS011;16339;48.748;2.222;2023-02-02T16:01:18;3.35;;;1.30;;
29344;SDS011;16339;48.748;2.222;2023-02-02T16:03:50;5.80;;;1.50;;
29344;SDS011;16339;48.748;2.222;2023-02-02T16:06:27;2.80;;;1.10;;
29344;SDS011;16339;48.748;2.222;2023-02-02T16:08:58;8.43;;;1.35;;
29344;SDS011;16339;48.748;2.222;2023-02-02T16:11:29;5.28;;;1.30;;
29344;SDS011;16339;48.748;2.222;2023-02-02T16:13:58;7.78;;;1.30;;
29344;SDS011;16339;48.748;2.222;2023-02-02T16:16:29;5.65;;;1.42;;
29344;SDS011;16339;48.748;2.222;2023-02-02T16:19:10;6.50;;;1.35;;
29344;SDS011;16339;48.748;2.222;2023-02-02T16:21:45;7.50;;;1.65;;
29344;SDS011;16339;48.748;2.222;2023-02-02T16:24:18;7.82;;;1.48;;
29344;SDS011;16339;48.748;2.222;2023-02-02T16:26:50;4.20;;;1.17;;
29344;SDS011;16339;48.748;2.222;2023-02-02T16:29:20;4.83;;;1.50;;
29344;SDS011;16339;48.748;2.222;2023-02-02T16:31:51;5.93;;;1.48;;
29344;SDS011;16339;48.748;2.222;2023-02-02T16:37:16;4.78;;;1.17;;
29344;SDS011;16339;48.748;2.222;2023-02-02T16:39:49;5.15;;;1.55;;
29344;SDS011;16339;48.748;2.222;2023-02-02T16:42:22;8.15;;;1.75;;
29344;SDS011;16339;48.748;2.222;2023-02-02T16:44:57;7.85;;;1.45;;
29344;SDS011;16339;48.748;2.222;2023-02-02T16:47:31;5.93;;;1.60;;
29344;SDS011;16339;48.748;2.222;2023-02-02T16:50:16;2.97;;;1.25;;
29344;SDS011;16339;48.748;2.222;2023-02-02T16:52:55;4.03;;;1.30;;
29344;SDS011;16339;48.748;2.222;2023-02-02T16:55:26;7.53;;;1.80;;
29344;SDS011;16339;48.748;2.222;2023-02-02T16:57:56;6.00;;;1.27;;
29344;SDS011;16339;48.748;2.222;2023-02-02T17:00:27;11.98;;;1.63;;
29344;SDS011;16339;48.748;2.222;2023-02-02T17:02:59;9.85;;;1.50;;
29344;SDS011;16339;48.748;2.222;2023-02-02T17:05:30;6.22;;;1.40;;
29344;SDS011;16339;48.748;2.222;2023-02-02T17:08:03;5.60;;;1.58;;
29344;SDS011;16339;48.748;2.222;2023-02-02T17:10:33;8.50;;;1.45;;
29344;SDS011;16339;48.748;2.222;2023-02-02T17:13:33;4.97;;;1.55;;
29344;SDS011;16339;48.748;2.222;2023-02-02T17:18:33;4.57;;;1.38;;
29344;SDS011;16339;48.748;2.222;2023-02-02T17:21:02;11.15;;;1.67;;
29344;SDS011;16339;48.748;2.222;2023-02-02T17:23:38;10.95;;;2.25;;
29344;SDS011;16339;48.748;2.222;2023-02-02T17:26:07;9.40;;;1.75;;
29344;SDS011;16339;48.748;2.222;2023-02-02T17:28:36;8.35;;;1.50;;
29344;SDS011;16339;48.748;2.222;2023-02-02T17:31:08;4.83;;;1.50;;
29344;SDS011;16339;48.748;2.222;2023-02-02T17:33:38;3.10;;;1.50;;
29344;SDS011;16339;48.748;2.222;2023-02-02T17:36:08;14.15;;;1.85;;
29344;SDS011;16339;48.748;2.222;2023-02-02T17:38:46;5.43;;;1.52;;
29344;SDS011;16339;48.748;2.222;2023-02-02T17:41:15;10.50;;;1.95;;
29344;SDS011;16339;48.748;2.222;2023-02-02T17:43:43;7.85;;;1.77;;
29344;SDS011;16339;48.748;2.222;2023-02-02T17:46:12;8.52;;;1.92;;
29344;SDS011;16339;48.748;2.222;2023-02-02T17:48:41;7.32;;;1.90;;
29344;SDS011;16339;48.748;2.222;2023-02-02T17:51:11;6.00;;;2.10;;
29344;SDS011;16339;48.748;2.222;2023-02-02T17:53:42;4.43;;;1.98;;
29344;SDS011;16339;48.748;2.222;2023-02-02T17:56:17;6.78;;;1.85;;
29344;SDS011;16339;48.748;2.222;2023-02-02T17:58:49;10.70;;;2.75;;
29344;SDS011;16339;48.748;2.222;2023-02-02T18:01:17;6.68;;;2.03;;
29344;SDS011;16339;48.748;2.222;2023-02-02T18:03:46;5.63;;;2.05;;
29344;SDS011;16339;48.748;2.222;2023-02-02T18:06:15;13.27;;;2.42;;
29344;SDS011;16339;48.748;2.222;2023-02-02T18:08:46;10.05;;;2.40;;
29344;SDS011;16339;48.748;2.222;2023-02-02T18:11:18;9.15;;;2.17;;
29344;SDS011;16339;48.748;2.222;2023-02-02T18:13:47;8.13;;;2.47;;
29344;SDS011;16339;48.748;2.222;2023-02-02T18:16:16;12.07;;;2.80;;
29344;SDS011;16339;48.748;2.222;2023-02-02T18:18:45;12.02;;;2.45;;
29344;SDS011;16339;48.748;2.222;2023-02-02T18:21:14;5.95;;;2.38;;
29344;SDS011;16339;48.748;2.222;2023-02-02T18:23:42;9.10;;;3.20;;
29344;SDS011;16339;48.748;2.222;2023-02-02T18:26:19;9.57;;;3.30;;
29344;SDS011;16339;48.748;2.222;2023-02-02T18:28:49;9.75;;;3.35;;
29344;SDS011;16339;48.748;2.222;2023-02-02T18:31:18;11.45;;;2.88;;
29344;SDS011;16339;48.748;2.222;2023-02-02T18:33:48;12.03;;;2.70;;
29344;SDS011;16339;48.748;2.222;2023-02-02T18:36:19;11.60;;;3.03;;
29344;SDS011;16339;48.748;2.222;2023-02-02T18:38:48;10.20;;;3.20;;
29344;SDS011;16339;48.748;2.222;2023-02-02T18:41:20;7.13;;;2.60;;
29344;SDS011;16339;48.748;2.222;2023-02-02T18:43:50;7.25;;;2.45;;
29344;SDS011;16339;48.748;2.222;2023-02-02T18:46:20;12.85;;;3.53;;
29344;SDS011;16339;48.748;2.222;2023-02-02T18:48:50;9.48;;;3.50;;
29344;SDS011;16339;48.748;2.222;2023-02-02T18:51:19;7.28;;;3.10;;
29344;SDS011;16339;48.748;2.222;2023-02-02T18:53:48;10.50;;;4.07;;
29344;SDS011;16339;48.748;2.222;2023-02-02T18:56:21;6.45;;;2.70;;
29344;SDS011;16339;48.748;2.222;2023-02-02T18:58:50;12.23;;;3.55;;
29344;SDS011;16339;48.748;2.222;2023-02-02T19:01:19;12.95;;;2.97;;
29344;SDS011;16339;48.748;2.222;2023-02-02T19:03:51;6.95;;;2.80;;
29344;SDS011;16339;48.748;2.222;2023-02-02T19:06:21;10.00;;;2.67;;
29344;SDS011;16339;48.748;2.222;2023-02-02T19:09:03;9.00;;;2.67;;
29344;SDS011;16339;48.748;2.222;2023-02-02T19:11:35;10.52;;;3.03;;
29344;SDS011;16339;48.748;2.222;2023-02-02T19:14:11;8.05;;;3.20;;
29344;SDS011;16339;48.748;2.222;2023-02-02T19:16:42;13.05;;;4.25;;
29344;SDS011;16339;48.748;2.222;2023-02-02T19:19:16;15.77;;;5.47;;
29344;SDS011;16339;48.748;2.222;2023-02-02T19:21:50;30.70;;;10.75;;
29344;SDS011;16339;48.748;2.222;2023-02-02T19:24:22;20.58;;;5.30;;
29344;SDS011;16339;48.748;2.222;2023-02-02T19:26:55;11.35;;;5.03;;
29344;SDS011;16339;48.748;2.222;2023-02-02T19:29:24;11.32;;;3.33;;
29344;SDS011;16339;48.748;2.222;2023-02-02T19:32:01;15.30;;;3.80;;
29344;SDS011;16339;48.748;2.222;2023-02-02T19:34:36;8.20;;;2.72;;
29344;SDS011;16339;48.748;2.222;2023-02-02T19:37:09;7.68;;;3.00;;
29344;SDS011;16339;48.748;2.222;2023-02-02T19:39:49;8.65;;;3.03;;
29344;SDS011;16339;48.748;2.222;2023-02-02T19:42:24;6.40;;;3.22;;
29344;SDS011;16339;48.748;2.222;2023-02-02T19:47:23;9.13;;;4.05;;
29344;SDS011;16339;48.748;2.222;2023-02-02T19:49:57;8.88;;;4.05;;
29344;SDS011;16339;48.748;2.222;2023-02-02T19:52:38;12.27;;;4.63;;
29344;SDS011;16339;48.748;2.222;2023-02-02T19:55:17;9.60;;;3.95;;
29344;SDS011;16339;48.748;2.222;2023-02-02T19:57:57;15.13;;;3.95;;
29344;SDS011;16339;48.748;2.222;2023-02-02T20:00:28;11.93;;;3.70;;
29344;SDS011;16339;48.748;2.222;2023-02-02T20:02:59;10.75;;;3.63;;
29344;SDS011;16339;48.748;2.222;2023-02-02T20:05:31;14.23;;;3.63;;
29344;SDS011;16339;48.748;2.222;2023-02-02T20:08:04;13.70;;;3.90;;
29344;SDS011;16339;48.748;2.222;2023-02-02T20:10:41;11.38;;;4.70;;
29344;SDS011;16339;48.748;2.222;2023-02-02T20:13:20;9.40;;;3.00;;
29344;SDS011;16339;48.748;2.222;2023-02-02T20:15:52;6.93;;;3.03;;
29344;SDS011;16339;48.748;2.222;2023-02-02T20:18:22;8.55;;;3.00;;
29344;SDS011;16339;48.748;2.222;2023-02-02T20:20:54;14.18;;;3.03;;
29344;SDS011;16339;48.748;2.222;2023-02-02T20:23:32;15.02;;;3.53;;
29344;SDS011;16339;48.748;2.222;2023-02-02T20:26:09;10.00;;;3.10;;
29344;SDS011;16339;48.748;2.222;2023-02-02T20:28:47;9.20;;;3.30;;
29344;SDS011;16339;48.748;2.222;2023-02-02T20:31:18;9.32;;;2.90;;
29344;SDS011;16339;48.748;2.222;2023-02-02T20:33:52;7.40;;;3.42;;
29344;SDS011;16339;48.748;2.222;2023-02-02T20:36:33;12.15;;;3.15;;
29344;SDS011;16339;48.748;2.222;2023-02-02T20:39:20;9.93;;;3.58;;
29344;SDS011;16339;48.748;2.222;2023-02-02T20:41:53;9.73;;;3.00;;
29344;SDS011;16339;48.748;2.222;2023-02-02T20:44:25;15.00;;;3.50;;
29344;SDS011;16339;48.748;2.222;2023-02-02T20:46:55;11.57;;;3.80;;
29344;SDS011;16339;48.748;2.222;2023-02-02T20:49:25;10.38;;;2.63;;
29344;SDS011;16339;48.748;2.222;2023-02-02T20:51:56;5.77;;;2.67;;
29344;SDS011;16339;48.748;2.222;2023-02-02T20:54:26;7.30;;;2.72;;
29344;SDS011;16339;48.748;2.222;2023-02-02T20:56:55;8.35;;;2.75;;
29344;SDS011;16339;48.748;2.222;2023-02-02T20:59:28;6.20;;;2.80;;
29344;SDS011;16339;48.748;2.222;2023-02-02T21:01:57;9.90;;;2.97;;
29344;SDS011;16339;48.748;2.222;2023-02-02T21:04:29;11.32;;;3.05;;
29344;SDS011;16339;48.748;2.222;2023-02-02T21:06:58;10.63;;;2.78;;
29344;SDS011;16339;48.748;2.222;2023-02-02T21:09:27;7.70;;;2.67;;
29344;SDS011;16339;48.748;2.222;2023-02-02T21:11:55;9.25;;;2.47;;
29344;SDS011;16339;48.748;2.222;2023-02-02T21:14:24;9.25;;;2.63;;
29344;SDS011;16339;48.748;2.222;2023-02-02T21:16:55;10.90;;;2.85;;
29344;SDS011;16339;48.748;2.222;2023-02-02T21:19:24;8.05;;;2.70;;
29344;SDS011;16339;48.748;2.222;2023-02-02T21:21:53;6.32;;;2.60;;
29344;SDS011;16339;48.748;2.222;2023-02-02T21:24:22;6.95;;;2.65;;
29344;SDS011;16339;48.748;2.222;2023-02-02T21:26:51;12.35;;;2.72;;
29344;SDS011;16339;48.748;2.222;2023-02-02T21:29:21;12.50;;;2.78;;
29344;SDS011;16339;48.748;2.222;2023-02-02T21:31:53;11.05;;;3.67;;
29344;SDS011;16339;48.748;2.222;2023-02-02T21:34:23;11.35;;;3.70;;
29344;SDS011;16339;48.748;2.222;2023-02-02T21:36:53;8.13;;;2.78;;
29344;SDS011;16339;48.748;2.222;2023-02-02T21:39:25;5.80;;;2.92;;
29344;SDS011;16339;48.748;2.222;2023-02-02T21:41:58;9.98;;;2.90;;
29344;SDS011;16339;48.748;2.222;2023-02-02T21:44:40;7.30;;;2.90;;
29344;SDS011;16339;48.748;2.222;2023-02-02T21:47:28;9.35;;;2.65;;
29344;SDS011;16339;48.748;2.222;2023-02-02T21:50:09;8.85;;;2.80;;
29344;SDS011;16339;48.748;2.222;2023-02-02T21:55:27;11.80;;;2.75;;
29344;SDS011;16339;48.748;2.222;2023-02-02T21:58:06;8.25;;;2.70;;
29344;SDS011;16339;48.748;2.222;2023-02-02T22:00:41;8.23;;;3.25;;
29344;SDS011;16339;48.748;2.222;2023-02-02T22:06:12;11.23;;;3.70;;
29344;SDS011;16339;48.748;2.222;2023-02-02T22:08:53;6.78;;;2.90;;
29344;SDS011;16339;48.748;2.222;2023-02-02T22:11:28;12.15;;;2.92;;
29344;SDS011;16339;48.748;2.222;2023-02-02T22:14:11;7.85;;;2.70;;
29344;SDS011;16339;48.748;2.222;2023-02-02T22:16:44;11.27;;;3.33;;
29344;SDS011;16339;48.748;2.222;2023-02-02T22:22:09;8.10;;;3.15;;
29344;SDS011;16339;48.748;2.222;2023-02-02T22:24:42;7.85;;;2.95;;
29344;SDS011;16339;48.748;2.222;2023-02-02T22:27:16;8.88;;;3.10;;
29344;SDS011;16339;48.748;2.222;2023-02-02T22:29:46;7.53;;;2.58;;
29344;SDS011;16339;48.748;2.222;2023-02-02T22:32:15;13.65;;;3.22;;
29344;SDS011;16339;48.748;2.222;2023-02-02T22:34:46;4.18;;;2.47;;
29344;SDS011;16339;48.748;2.222;2023-02-02T22:37:15;7.50;;;2.70;;
29344;SDS011;16339;48.748;2.222;2023-02-02T22:39:43;8.10;;;3.05;;
29344;SDS011;16339;48.748;2.222;2023-02-02T22:42:12;9.65;;;2.78;;
29344;SDS011;16339;48.748;2.222;2023-02-02T22:44:42;6.03;;;2.22;;
29344;SDS011;16339;48.748;2.222;2023-02-02T22:47:12;6.60;;;2.72;;
29344;SDS011;16339;48.748;2.222;2023-02-02T22:49:40;6.43;;;2.47;;
29344;SDS011;16339;48.748;2.222;2023-02-02T22:52:12;5.95;;;2.47;;
29344;SDS011;16339;48.748;2.222;2023-02-02T22:54:40;5.28;;;2.42;;
29344;SDS011;16339;48.748;2.222;2023-02-02T22:57:09;5.85;;;2.47;;
29344;SDS011;16339;48.748;2.222;2023-02-02T22:59:38;7.03;;;2.15;;
29344;SDS011;16339;48.748;2.222;2023-02-02T23:02:06;8.63;;;3.05;;
29344;SDS011;16339;48.748;2.222;2023-02-02T23:04:35;9.88;;;2.10;;
29344;SDS011;16339;48.748;2.222;2023-02-02T23:07:04;8.63;;;2.38;;
29344;SDS011;16339;48.748;2.222;2023-02-02T23:09:35;6.65;;;2.50;;
29344;SDS011;16339;48.748;2.222;2023-02-02T23:12:04;5.38;;;2.30;;
29344;SDS011;16339;48.748;2.222;2023-02-02T23:14:33;8.25;;;1.90;;
29344;SDS011;16339;48.748;2.222;2023-02-02T23:17:02;4.22;;;1.55;;
29344;SDS011;16339;48.748;2.222;2023-02-02T23:19:32;6.38;;;2.20;;
29344;SDS011;16339;48.748;2.222;2023-02-02T23:22:00;4.93;;;1.92;;
29344;SDS011;16339;48.748;2.222;2023-02-02T23:24:29;6.20;;;1.55;;
29344;SDS011;16339;48.748;2.222;2023-02-02T23:27:01;7.68;;;2.15;;
29344;SDS011;16339;48.748;2.222;2023-02-02T23:29:29;12.32;;;2.08;;
29344;SDS011;16339;48.748;2.222;2023-02-02T23:31:58;9.48;;;1.90;;
29344;SDS011;16339;48.748;2.222;2023-02-02T23:34:27;6.05;;;1.77;;
29344;SDS011;16339;48.748;2.222;2023-02-02T23:36:55;3.67;;;1.70;;
29344;SDS011;16339;48.748;2.222;2023-02-02T23:39:24;6.93;;;1.70;;
29344;SDS011;16339;48.748;2.222;2023-02-02T23:41:52;7.07;;;1.73;;
29344;SDS011;16339;48.748;2.222;2023-02-02T23:44:24;7.28;;;2.05;;
29344;SDS011;16339;48.748;2.222;2023-02-02T23:46:52;4.90;;;2.13;;
29344;SDS011;16339;48.748;2.222;2023-02-02T23:49:21;6.72;;;1.52;;
29344;SDS011;16339;48.748;2.222;2023-02-02T23:51:50;2.50;;;1.63;;
29344;SDS011;16339;48.748;2.222;2023-02-02T23:54:19;6.10;;;2.15;;
29344;SDS011;16339;48.748;2.222;2023-02-02T23:56:48;10.93;;;2.70;;
29344;SDS011;16339;48.748;2.222;2023-02-02T23:59:17;5.43;;;1.65;;
